Home > Products > Valid Products > TAF

000
FTUS44 KSJT 061126
TAFABI
TAF
KABI 061126Z 0612/0712 15007KT P6SM FEW250
     FM061500 16012G20KT P6SM FEW250
     FM070100 16010KT P6SM SCT250=



000
FTUS44 KSJT 061126
TAFJCT
TAF
KJCT 061126Z 0612/0712 VRB05KT P6SM SKC
     FM061600 17011G17KT P6SM SKC
     FM062000 13011G17KT P6SM FEW250
     FM070100 15006KT P6SM SCT250=



000
FTUS44 KSJT 061126
TAFSJT
TAF
KSJT 061126Z 0612/0712 VRB05KT P6SM FEW250
     FM061900 15014G22KT P6SM FEW250
     FM070100 15009KT P6SM BKN250=



000
FTUS44 KSJT 060520
TAFSJT
TAF
KSJT 060520Z 0606/0706 16007KT P6SM FEW250
     FM061500 17010G16KT P6SM FEW150
     FM070000 15010KT P6SM SKC=



000
FTUS44 KSJT 060520
TAFJCT
TAF
KJCT 060520Z 0606/0706 VRB06KT P6SM FEW250
     FM061600 16011KT P6SM FEW250
     FM070000 VRB06KT P6SM SKC=



000
FTUS44 KSJT 060520
TAFABI
TAF
KABI 060520Z 0606/0706 15007KT P6SM FEW250
     FM061500 17011G17KT P6SM FEW150
     FM070000 15010KT P6SM SKC=



000
FTUS44 KSJT 060520
TAFSJT
TAF
KSJT 060520Z 0606/0706 16007KT P6SM FEW250
     FM061500 17010G16KT P6SM FEW150
     FM070000 15010KT P6SM SKC=



000
FTUS44 KSJT 060520
TAFABI
TAF
KABI 060520Z 0606/0706 15007KT P6SM FEW250
     FM061500 17011G17KT P6SM FEW150
     FM070000 15010KT P6SM SKC=



000
FTUS44 KSJT 060520
TAFJCT
TAF
KJCT 060520Z 0606/0706 VRB06KT P6SM FEW250
     FM061600 16011KT P6SM FEW250
     FM070000 VRB06KT P6SM SKC=



000
FTUS44 KSJT 052322
TAFABI
TAF
KABI 052322Z 0600/0624 VRB06KT P6SM FEW250
     FM061500 17012G17KT P6SM FEW150=



000
FTUS44 KSJT 052322
TAFJCT
TAF
KJCT 052322Z 0600/0624 VRB06KT P6SM FEW250
     FM061600 17009KT P6SM FEW250=



000
FTUS44 KSJT 052322
TAFSJT
TAF
KSJT 052322Z 0600/0624 VRB06KT P6SM FEW250
     FM061500 17011G16KT P6SM FEW150=



000
FTUS44 KSJT 052322
TAFABI
TAF
KABI 052322Z 0600/0624 VRB06KT P6SM FEW250
     FM061500 17012G17KT P6SM FEW150=



000
FTUS44 KSJT 052322
TAFJCT
TAF
KJCT 052322Z 0600/0624 VRB06KT P6SM FEW250
     FM061600 17009KT P6SM FEW250=



000
FTUS44 KSJT 052322
TAFSJT
TAF
KSJT 052322Z 0600/0624 VRB06KT P6SM FEW250
     FM061500 17011G16KT P6SM FEW150=



000
FTUS44 KSJT 052320
TAFJCT
TAF
KJCT 052320Z 0600/0624 11007KT P6SM FEW250
     FM060200 VRB03KT P6SM FEW250
     FM061600 17007KT P6SM FEW250=



000
FTUS44 KSJT 052320
TAFABI
TAF
KABI 052320Z 0600/0624 VRB06KT P6SM FEW250
     FM060100 14008KT P6SM FEW250
     FM061500 17012G17KT P6SM FEW150=



000
FTUS44 KSJT 052320
TAFSJT
TAF
KSJT 052320Z 0600/0624 VRB06KT P6SM FEW250
     FM060500 17006KT P6SM FEW250
     FM061500 17011G16KT P6SM FEW150=



000
FTUS44 KSJT 052320
TAFABI
TAF
KABI 052320Z 0600/0624 VRB06KT P6SM FEW250
     FM060100 14008KT P6SM FEW250
     FM061500 17012G17KT P6SM FEW150=



000
FTUS44 KSJT 052320
TAFSJT
TAF
KSJT 052320Z 0600/0624 VRB06KT P6SM FEW250
     FM060500 17006KT P6SM FEW250
     FM061500 17011G16KT P6SM FEW150=



000
FTUS44 KSJT 052320
TAFJCT
TAF
KJCT 052320Z 0600/0624 11007KT P6SM FEW250
     FM060200 VRB03KT P6SM FEW250
     FM061600 17007KT P6SM FEW250=



000
FTUS44 KSJT 051831 RRA
TAFSJT
TAF
KSJT 051831Z 0519/0618 VRB06KT P6SM FEW250
     FM060500 17006KT P6SM FEW250
     FM061500 17011G16KT P6SM FEW150=



000
FTUS44 KSJT 051831 RRA
TAFABI
TAF
KABI 051831Z 0519/0618 VRB06KT P6SM FEW250
     FM060100 14008KT P6SM FEW250
     FM061500 17012G17KT P6SM FEW150=



000
FTUS44 KSJT 051831 RRA
TAFJCT
TAF
KJCT 051831Z 0519/0618 11007KT P6SM FEW250
     FM060200 VRB03KT P6SM FEW250
     FM061600 17007KT P6SM FEW250=



000
FTUS44 KSJT 051120
TAFSJT
TAF
KSJT 051120Z 0512/0612 VRB06KT P6SM SKC=



000
FTUS44 KSJT 051120
TAFABI
TAF
KABI 051120Z 0512/0612 VRB06KT P6SM SKC=



000
FTUS44 KSJT 051120
TAFSJT
TAF
KSJT 051120Z 0512/0612 VRB06KT P6SM SKC=



000
FTUS44 KSJT 051120
TAFABI
TAF
KABI 051120Z 0512/0612 VRB06KT P6SM SKC=



000
FTUS44 KSJT 051120
TAFJCT
TAF
KJCT 051120Z 0512/0612 VRB06KT P6SM SKC=



000
FTUS44 KSJT 051120
TAFJCT
TAF
KJCT 051120Z 0512/0612 VRB06KT P6SM SKC=



000
FTUS44 KSJT 050520
TAFSJT
TAF
KSJT 050520Z 0506/0606 VRB06KT P6SM SKC=



000
FTUS44 KSJT 050520
TAFJCT
TAF
KJCT 050520Z 0506/0606 VRB06KT P6SM SKC=



000
FTUS44 KSJT 050520
TAFABI
TAF
KABI 050520Z 0506/0606 VRB06KT P6SM SKC=



000
FTUS44 KSJT 042320
TAFJCT
TAF
KJCT 042320Z 0500/0524 VRB06KT P6SM SKC=



000
FTUS44 KSJT 042320
TAFABI
TAF
KABI 042320Z 0500/0524 VRB06KT P6SM SKC=



000
FTUS44 KSJT 042320
TAFSJT
TAF
KSJT 042320Z 0500/0524 VRB06KT P6SM SKC=



000
FTUS44 KSJT 042320
TAFJCT
TAF
KJCT 042320Z 0500/0524 VRB06KT P6SM SKC=



000
FTUS44 KSJT 042320
TAFABI
TAF
KABI 042320Z 0500/0524 VRB06KT P6SM SKC=



000
FTUS44 KSJT 042320
TAFSJT
TAF
KSJT 042320Z 0500/0524 VRB06KT P6SM SKC=



000
FTUS44 KSJT 041746 CCA
TAFJCT
TAF COR
KJCT 041746Z 0418/0518 32010G17KT P6SM SKC
     FM042200 35009KT P6SM SKC
     FM050300 VRB03KT P6SM SKC=



000
FTUS44 KSJT 041746 CCA
TAFJCT
TAF COR
KJCT 041746Z 0418/0518 32010G17KT P6SM SKC
     FM042200 35009KT P6SM SKC
     FM050300 VRB03KT P6SM SKC=



000
FTUS44 KSJT 041736
TAFJCT
TAF
KJCT 041736Z 0418/0518 32008KT P6SM SKC
     FM050300 VRB03KT P6SM SKC=



000
FTUS44 KSJT 041736
TAFSJT
TAF
KSJT 041736Z 0418/0518 34009KT P6SM SKC
     FM050200 VRB03KT P6SM SKC
     FM051600 15006KT P6SM FEW250=



000
FTUS44 KSJT 041736
TAFABI
TAF
KABI 041736Z 0418/0518 34009KT P6SM SKC
     FM050100 VRB04KT P6SM SKC=



000
FTUS44 KSJT 041736
TAFSJT
TAF
KSJT 041736Z 0418/0518 34009KT P6SM SKC
     FM050200 VRB03KT P6SM SKC
     FM051600 15006KT P6SM FEW250=



000
FTUS44 KSJT 041736
TAFABI
TAF
KABI 041736Z 0418/0518 34009KT P6SM SKC
     FM050100 VRB04KT P6SM SKC=



000
FTUS44 KSJT 041736
TAFJCT
TAF
KJCT 041736Z 0418/0518 32008KT P6SM SKC
     FM050300 VRB03KT P6SM SKC=



000
FTUS44 KSJT 041552 AAA
TAFJCT
TAF AMD
KJCT 041552Z 0416/0512 32007KT P6SM SKC
     FM050300 VRB03KT P6SM SKC=



000
FTUS44 KSJT 041552 AAA
TAFABI
TAF AMD
KABI 041552Z 0416/0512 34009KT P6SM SKC
     FM050600 VRB04KT P6SM SKC=



000
FTUS44 KSJT 041552 AAA
TAFABI
TAF AMD
KABI 041552Z 0416/0512 34009KT P6SM SKC
     FM050600 VRB04KT P6SM SKC=



000
FTUS44 KSJT 041552 AAA
TAFJCT
TAF AMD
KJCT 041552Z 0416/0512 32007KT P6SM SKC
     FM050300 VRB03KT P6SM SKC=



000
FTUS44 KSJT 041551 AAA
TAFSJT
TAF AMD
KSJT 041551Z 0416/0512 33007KT P6SM SKC
     FM050600 VRB03KT P6SM SKC=



000
FTUS44 KSJT 041120
TAFJCT
TAF
KJCT 041120Z 0412/0512 VRB04KT P6SM SKC=



000
FTUS44 KSJT 041120
TAFABI
TAF
KABI 041120Z 0412/0512 34006KT P6SM SKC
     FM050600 VRB04KT P6SM SKC=



000
FTUS44 KSJT 041120
TAFJCT
TAF
KJCT 041120Z 0412/0512 VRB04KT P6SM SKC=



000
FTUS44 KSJT 041120
TAFABI
TAF
KABI 041120Z 0412/0512 34006KT P6SM SKC
     FM050600 VRB04KT P6SM SKC=



000
FTUS44 KSJT 041120
TAFSJT
TAF
KSJT 041120Z 0412/0512 35006KT P6SM SKC
     FM050600 VRB03KT P6SM SKC=



000
FTUS44 KSJT 041120
TAFSJT
TAF
KSJT 041120Z 0412/0512 35006KT P6SM SKC
     FM050600 VRB03KT P6SM SKC=



000
FTUS44 KSJT 040520
TAFABI
TAF
KABI 040520Z 0406/0506 VRB06KT P6SM SKC=



000
FTUS44 KSJT 040520
TAFJCT
TAF
KJCT 040520Z 0406/0506 VRB06KT P6SM SKC=



000
FTUS44 KSJT 040520
TAFSJT
TAF
KSJT 040520Z 0406/0506 VRB06KT P6SM SKC=



000
FTUS44 KSJT 040419 AAA
TAFABI
TAF AMD
KABI 040419Z 0404/0424 VRB06KT P6SM SKC=



000
FTUS44 KSJT 032341
TAFJCT
TAF
KJCT 032341Z 0400/0424 08005KT P6SM SKC=



000
FTUS44 KSJT 032341
TAFSJT
TAF
KSJT 032341Z 0400/0424 13005KT P6SM SKC=



000
FTUS44 KSJT 032341
TAFABI
TAF
KABI 032341Z 0400/0424 14005KT P6SM SCT060
      TEMPO 0400/0403 VRB15G25KT SHRA SCT060 BKN090
     FM040300 VRB04KT P6SM BKN100
     FM040500 VRB04KT P6SM SKC=



000
FTUS44 KSJT 032253 AAA
TAFABI
TAF AMD
KABI 032253Z 0323/0418 14005KT P6SM SCT060
      TEMPO 0323/0401 VRB15G25KT SHRA SCT060 BKN090
     FM040100 VRB04KT P6SM BKN100
     FM040500 VRB04KT P6SM SKC=



000
FTUS44 KSJT 031735
TAFSJT
TAF
KSJT 031735Z 0318/0418 13005KT P6SM SKC=



000
FTUS44 KSJT 031735
TAFABI
TAF
KABI 031735Z 0318/0418 14005KT P6SM SKC
     FM040100 VRB04KT P6SM BKN100
     FM040500 VRB04KT P6SM SKC=



000
FTUS44 KSJT 031735
TAFJCT
TAF
KJCT 031735Z 0318/0418 08005KT P6SM SKC=



000
FTUS44 KSJT 031735
TAFABI
TAF
KABI 031735Z 0318/0418 14005KT P6SM SKC
     FM040100 VRB04KT P6SM BKN100
     FM040500 VRB04KT P6SM SKC=



000
FTUS44 KSJT 031735
TAFJCT
TAF
KJCT 031735Z 0318/0418 08005KT P6SM SKC=



000
FTUS44 KSJT 031735
TAFSJT
TAF
KSJT 031735Z 0318/0418 13005KT P6SM SKC=



    US Dept of Commerce
    National Oceanic and Atmospheric Administration
    National Weather Service
    1325 East West Highway
    Silver Spring, MD 20910
    Page Author: NWS Internet Services Team
Disclaimer
Information Quality
Credits
Glossary
Privacy Policy
Freedom of Information Act (FOIA)
About Us
Career Opportunities